createdAt,value
2022-09-30T00:00:20.516Z,6.92
2022-09-30T00:03:10.010Z,6.89
2022-09-30T00:05:37.899Z,6.89
2022-09-30T00:08:07.956Z,6.88
2022-09-30T00:10:35.719Z,6.87
2022-09-30T00:13:03.608Z,6.85
2022-09-30T00:15:32.503Z,6.84
2022-09-30T00:18:28.769Z,6.81
2022-09-30T00:20:59.962Z,6.77
2022-09-30T00:23:31.181Z,6.74
2022-09-30T00:26:04.347Z,6.71
2022-09-30T00:28:36.320Z,6.69
2022-09-30T00:31:08.086Z,6.66
2022-09-30T00:33:36.270Z,6.63
2022-09-30T00:36:04.894Z,6.60
2022-09-30T00:38:37.145Z,6.58
2022-09-30T00:41:05.179Z,6.55
2022-09-30T00:43:53.638Z,6.54
2022-09-30T00:46:26.123Z,6.53
2022-09-30T00:48:57.234Z,6.53
2022-09-30T00:51:33.804Z,6.53
2022-09-30T00:54:06.233Z,6.53
2022-09-30T00:56:39.723Z,6.55
2022-09-30T00:59:16.233Z,6.59
2022-09-30T01:01:48.372Z,6.63
2022-09-30T01:04:20.994Z,6.67
2022-09-30T01:06:49.754Z,6.69
2022-09-30T01:09:21.021Z,6.72
2022-09-30T01:11:49.193Z,6.77
2022-09-30T01:14:22.714Z,6.79
2022-09-30T01:17:04.420Z,6.83
2022-09-30T01:20:03.478Z,6.85
2022-09-30T01:22:58.006Z,6.89
2022-09-30T01:25:57.451Z,6.91
2022-09-30T01:29:03.520Z,6.93
2022-09-30T01:31:50.085Z,6.96
2022-09-30T01:34:45.514Z,6.98
2022-09-30T01:37:38.100Z,7.01
2022-09-30T01:40:22.737Z,7.03
2022-09-30T01:43:05.080Z,7.07
2022-09-30T01:45:43.931Z,7.11
2022-09-30T01:48:19.390Z,7.14
2022-09-30T01:50:58.002Z,7.18
2022-09-30T01:53:37.174Z,7.22
2022-09-30T01:56:24.226Z,7.25
2022-09-30T01:59:18.799Z,7.27
2022-09-30T02:01:54.496Z,7.29
2022-09-30T02:04:42.050Z,7.33
2022-09-30T02:07:16.912Z,7.37
2022-09-30T02:10:26.813Z,7.41
2022-09-30T02:13:06.228Z,7.45
2022-09-30T02:15:43.789Z,7.49
2022-09-30T02:18:20.530Z,7.53
2022-09-30T02:21:00.250Z,7.56
2022-09-30T02:23:33.329Z,7.59
2022-09-30T02:26:11.827Z,7.61
2022-09-30T02:28:46.487Z,7.62
2022-09-30T02:31:21.323Z,7.65
2022-09-30T02:34:03.222Z,7.68
2022-09-30T02:36:47.455Z,7.71
2022-09-30T02:39:38.054Z,7.71
2022-09-30T02:42:16.611Z,7.73
2022-09-30T02:44:44.719Z,7.72
2022-09-30T02:47:43.749Z,7.71
2022-09-30T02:50:49.122Z,7.69
2022-09-30T02:53:35.612Z,7.66
2022-09-30T02:56:17.841Z,7.64
2022-09-30T02:58:47.243Z,7.62
2022-09-30T03:01:17.105Z,7.60
2022-09-30T03:03:54.376Z,7.57
2022-09-30T03:06:23.099Z,7.56
2022-09-30T03:08:53.327Z,7.54
2022-09-30T03:11:24.859Z,7.50
2022-09-30T03:14:20.708Z,7.49
2022-09-30T03:16:55.039Z,7.47
2022-09-30T03:19:33.600Z,7.47
2022-09-30T03:22:47.454Z,7.46
2022-09-30T03:25:25.088Z,7.44
2022-09-30T03:28:17.513Z,7.43
2022-09-30T03:31:15.284Z,7.42
2022-09-30T03:34:25.343Z,7.40
2022-09-30T03:37:15.625Z,7.41
2022-09-30T03:40:06.676Z,7.41
2022-09-30T03:42:39.746Z,7.43
2022-09-30T03:45:14.427Z,7.44
2022-09-30T03:47:49.418Z,7.47
2022-09-30T03:50:21.708Z,7.49
2022-09-30T03:52:50.468Z,7.53
2022-09-30T03:55:48.278Z,7.57
2022-09-30T03:58:19.247Z,7.61
2022-09-30T04:00:53.131Z,7.65
2022-09-30T04:03:23.041Z,7.65
2022-09-30T04:05:51.280Z,7.67
2022-09-30T04:08:20.476Z,7.69
2022-09-30T04:10:50.294Z,7.70
2022-09-30T04:13:19.413Z,7.73
2022-09-30T04:15:55.004Z,7.76
2022-09-30T04:18:25.053Z,7.80
2022-09-30T04:20:52.824Z,7.82
2022-09-30T04:23:21.146Z,7.82
2022-09-30T04:25:57.131Z,7.84
2022-09-30T04:28:25.724Z,7.84
2022-09-30T04:30:53.636Z,7.85
2022-09-30T04:33:23.132Z,7.88
2022-09-30T04:35:54.595Z,7.91
2022-09-30T04:38:24.793Z,7.95
2022-09-30T04:40:56.027Z,7.99
2022-09-30T04:43:25.809Z,8.03
2022-09-30T04:45:59.284Z,8.05
2022-09-30T04:48:31.486Z,8.06
2022-09-30T04:51:00.980Z,8.02
2022-09-30T04:53:30.044Z,8.00
2022-09-30T04:56:01.336Z,8.01
2022-09-30T04:58:37.031Z,8.03
2022-09-30T05:01:21.645Z,8.02
2022-09-30T05:03:55.090Z,8.03
2022-09-30T05:06:23.427Z,8.04
2022-09-30T05:08:55.848Z,8.03
2022-09-30T05:11:27.370Z,8.02
2022-09-30T05:13:56.252Z,7.99
2022-09-30T05:16:31.450Z,7.98
2022-09-30T05:19:01.579Z,8.02
2022-09-30T05:21:31.348Z,8.08
2022-09-30T05:23:59.962Z,8.13
2022-09-30T05:26:30.286Z,8.17
2022-09-30T05:29:01.389Z,8.20
2022-09-30T05:31:30.559Z,8.24
2022-09-30T05:33:58.657Z,8.29
2022-09-30T05:36:28.615Z,8.32
2022-09-30T05:38:57.644Z,8.36
2022-09-30T05:41:25.675Z,8.39
2022-09-30T05:43:55.450Z,8.42
2022-09-30T05:46:24.560Z,8.46
2022-09-30T05:48:55.168Z,8.49
2022-09-30T05:51:24.793Z,8.53
2022-09-30T05:53:55.777Z,8.57
2022-09-30T05:56:24.626Z,8.62
2022-09-30T05:58:59.370Z,8.68
2022-09-30T06:01:29.196Z,8.70
2022-09-30T06:03:58.798Z,8.70
2022-09-30T06:06:27.262Z,8.70
2022-09-30T06:08:57.394Z,8.75
2022-09-30T06:11:26.326Z,8.79
2022-09-30T06:13:55.059Z,8.83
2022-09-30T06:16:24.745Z,8.84
2022-09-30T06:18:55.637Z,8.81
2022-09-30T06:21:24.255Z,8.84
2022-09-30T06:23:52.395Z,8.92
2022-09-30T06:26:21.488Z,9.01
2022-09-30T06:28:52.706Z,9.10
2022-09-30T06:31:20.597Z,9.20
2022-09-30T06:33:53.233Z,9.30
2022-09-30T06:36:22.151Z,9.39
2022-09-30T06:39:12.817Z,9.45
2022-09-30T06:41:44.148Z,9.50
2022-09-30T06:44:16.248Z,9.56
2022-09-30T06:46:53.217Z,9.63
2022-09-30T06:49:22.756Z,9.70
2022-09-30T06:51:51.996Z,9.78
2022-09-30T06:54:21.200Z,9.84
2022-09-30T06:56:50.109Z,9.91
2022-09-30T06:59:18.468Z,9.99
2022-09-30T07:01:50.212Z,10.06
2022-09-30T07:04:19.321Z,10.13
2022-09-30T07:06:49.524Z,10.18
2022-09-30T07:09:18.108Z,10.24
2022-09-30T07:11:48.141Z,10.31
2022-09-30T07:14:17.504Z,10.37
2022-09-30T07:16:47.221Z,10.45
2022-09-30T07:19:17.928Z,10.54
2022-09-30T07:21:47.280Z,10.71
2022-09-30T07:24:18.808Z,10.98
2022-09-30T07:27:04.692Z,11.10
2022-09-30T07:30:09.558Z,11.13
2022-09-30T07:32:43.381Z,11.18
2022-09-30T07:35:12.785Z,11.23
2022-09-30T07:37:42.550Z,11.27
2022-09-30T07:40:12.483Z,11.33
2022-09-30T07:42:46.279Z,11.42
2022-09-30T07:45:19.177Z,11.52
2022-09-30T07:47:53.286Z,11.59
2022-09-30T07:50:24.280Z,11.67
2022-09-30T07:52:53.568Z,11.76
2022-09-30T07:55:21.806Z,11.84
2022-09-30T07:57:50.417Z,11.91
2022-09-30T08:00:41.551Z,11.98
2022-09-30T08:03:12.297Z,12.07
2022-09-30T08:05:42.508Z,12.17
2022-09-30T08:08:12.744Z,12.28
2022-09-30T08:10:44.518Z,12.41
2022-09-30T08:13:16.910Z,12.54
2022-09-30T08:15:44.832Z,12.65
2022-09-30T08:18:12.845Z,12.77
2022-09-30T08:20:42.689Z,12.86
2022-09-30T08:23:13.709Z,12.93
2022-09-30T08:25:41.920Z,13.00
2022-09-30T08:28:12.548Z,13.10
2022-09-30T08:30:41.931Z,13.17
2022-09-30T08:33:10.848Z,13.19
2022-09-30T08:35:39.209Z,13.24
2022-09-30T08:38:07.427Z,13.30
2022-09-30T08:40:54.069Z,13.34
2022-09-30T08:43:32.004Z,13.39
2022-09-30T08:46:26.454Z,13.42
2022-09-30T08:49:28.199Z,13.46
2022-09-30T08:52:01.997Z,13.53
2022-09-30T08:54:37.918Z,13.60
2022-09-30T08:57:15.133Z,13.66
2022-09-30T08:59:48.931Z,13.80
2022-09-30T09:02:29.156Z,13.98
2022-09-30T09:05:27.174Z,14.16
2022-09-30T09:08:02.852Z,14.37
2022-09-30T09:10:48.530Z,14.56
2022-09-30T09:13:43.206Z,14.73
2022-09-30T09:16:47.363Z,14.92
2022-09-30T09:19:24.541Z,15.07
2022-09-30T09:21:57.442Z,15.19
2022-09-30T09:24:30.629Z,15.28
2022-09-30T09:26:59.622Z,15.39
2022-09-30T09:29:46.562Z,15.52
2022-09-30T09:32:18.515Z,15.63
2022-09-30T09:34:53.025Z,15.77
2022-09-30T09:38:04.885Z,15.89
2022-09-30T09:40:57.740Z,15.99
2022-09-30T09:43:49.877Z,15.96
2022-09-30T09:46:25.439Z,16.08
2022-09-30T09:49:29.572Z,16.26
2022-09-30T09:52:13.551Z,16.32
2022-09-30T09:54:51.253Z,16.39
2022-09-30T09:57:27.844Z,16.43
2022-09-30T10:02:32.675Z,16.44
2022-09-30T10:05:01.108Z,16.49
2022-09-30T10:07:33.145Z,16.50
2022-09-30T10:10:24.163Z,16.56
2022-09-30T10:12:52.720Z,16.65
2022-09-30T10:15:27.370Z,16.71
2022-09-30T10:17:59.567Z,16.76
2022-09-30T10:20:36.575Z,16.82
2022-09-30T10:23:20.432Z,16.86
2022-09-30T10:25:55.532Z,16.80
2022-09-30T10:28:30.383Z,16.68
2022-09-30T10:31:14.695Z,16.64
2022-09-30T10:33:56.521Z,16.48
2022-09-30T10:36:34.035Z,16.39
2022-09-30T10:39:08.772Z,16.22
2022-09-30T10:41:39.670Z,16.05
2022-09-30T10:44:17.240Z,16.09
2022-09-30T10:46:48.209Z,16.19
2022-09-30T10:49:25.638Z,16.29
2022-09-30T10:51:55.659Z,16.38
2022-09-30T10:54:47.213Z,16.53
2022-09-30T10:57:23.621Z,16.59
2022-09-30T11:00:21.820Z,16.60
2022-09-30T11:02:59.589Z,16.68
2022-09-30T11:05:33.459Z,16.80
2022-09-30T11:08:27.439Z,16.85
2022-09-30T11:11:11.557Z,16.91
2022-09-30T11:13:49.838Z,16.95
2022-09-30T11:16:48.688Z,17.02
2022-09-30T11:19:26.535Z,17.10
2022-09-30T11:22:03.640Z,17.22
2022-09-30T11:24:43.933Z,17.34
2022-09-30T11:27:31.782Z,17.52
2022-09-30T11:30:03.477Z,17.67
2022-09-30T11:32:55.906Z,17.80
2022-09-30T11:35:51.091Z,17.88
2022-09-30T11:38:56.992Z,17.97
2022-09-30T11:41:42.459Z,17.96
2022-09-30T11:44:26.524Z,18.01
2022-09-30T11:47:28.626Z,18.02
2022-09-30T11:50:21.436Z,18.02
2022-09-30T11:53:05.145Z,18.03
2022-09-30T11:55:47.809Z,18.05
2022-09-30T11:58:47.169Z,18.11
2022-09-30T12:01:29.039Z,18.18
2022-09-30T12:04:03.453Z,18.23
2022-09-30T12:06:40.433Z,18.27
2022-09-30T12:09:23.560Z,18.28
2022-09-30T12:12:03.637Z,18.27
2022-09-30T12:14:41.435Z,18.25
2022-09-30T12:18:08.307Z,18.22
2022-09-30T12:21:16.707Z,18.23
2022-09-30T12:23:49.702Z,18.22
2022-09-30T12:26:18.477Z,18.22
2022-09-30T12:29:17.987Z,18.19
2022-09-30T12:32:09.767Z,18.22
2022-09-30T12:35:01.819Z,18.27
2022-09-30T12:37:56.247Z,18.29
2022-09-30T12:40:28.582Z,18.17
2022-09-30T12:43:06.826Z,18.08
2022-09-30T12:46:07.633Z,18.11
2022-09-30T12:48:44.676Z,18.19
2022-09-30T12:51:35.526Z,18.27
2022-09-30T12:54:13.562Z,18.29
2022-09-30T12:56:44.967Z,18.32
2022-09-30T12:59:14.490Z,18.36
2022-09-30T13:01:43.023Z,18.55
2022-09-30T13:04:35.101Z,18.73
2022-09-30T13:07:04.010Z,18.79
2022-09-30T13:09:36.537Z,18.83
2022-09-30T13:12:04.328Z,18.84
2022-09-30T13:14:40.533Z,18.84
2022-09-30T13:17:11.664Z,18.77
2022-09-30T13:19:48.573Z,18.65
2022-09-30T13:22:42.747Z,18.64
2022-09-30T13:25:15.234Z,18.66
2022-09-30T13:27:55.484Z,18.68
2022-09-30T13:30:24.471Z,18.61
2022-09-30T13:33:02.499Z,18.63
2022-09-30T13:35:41.097Z,18.67
2022-09-30T13:38:14.841Z,18.70
2022-09-30T13:41:02.338Z,18.76
2022-09-30T13:44:01.358Z,18.91
2022-09-30T13:47:01.916Z,19.01
2022-09-30T13:49:43.475Z,18.99
2022-09-30T13:52:35.611Z,18.98
2022-09-30T13:55:18.423Z,18.92
2022-09-30T13:58:00.793Z,18.81
2022-09-30T14:00:59.903Z,18.65
2022-09-30T14:04:11.627Z,18.51
2022-09-30T14:07:10.615Z,18.52
2022-09-30T14:10:09.282Z,18.43
2022-09-30T14:12:46.659Z,18.43
2022-09-30T14:15:42.665Z,18.41
2022-09-30T14:18:38.527Z,18.37
2022-09-30T14:21:36.196Z,18.41
2022-09-30T14:24:13.019Z,18.37
2022-09-30T14:27:10.008Z,18.39
2022-09-30T14:30:12.944Z,18.43
2022-09-30T14:32:50.521Z,18.39
2022-09-30T14:35:22.075Z,18.36
2022-09-30T14:38:03.215Z,18.28
2022-09-30T14:40:34.392Z,18.30
2022-09-30T14:43:16.233Z,18.25
2022-09-30T14:45:47.184Z,18.15
2022-09-30T14:48:23.518Z,18.06
2022-09-30T14:51:05.568Z,18.05
2022-09-30T14:53:40.594Z,18.02
2022-09-30T14:56:22.071Z,18.00
2022-09-30T14:58:53.407Z,17.97
2022-09-30T15:01:23.413Z,17.92
2022-09-30T15:04:14.461Z,17.92
2022-09-30T15:07:03.709Z,17.90
2022-09-30T15:09:44.342Z,17.84
2022-09-30T15:12:19.455Z,17.81
2022-09-30T15:14:51.828Z,17.78
2022-09-30T15:17:38.602Z,17.71
2022-09-30T15:20:45.517Z,17.64
2022-09-30T15:23:21.570Z,17.48
2022-09-30T15:25:49.745Z,17.33
2022-09-30T15:28:18.412Z,17.25
2022-09-30T15:30:47.189Z,17.21
2022-09-30T15:33:20.588Z,17.10
2022-09-30T15:35:48.809Z,17.00
2022-09-30T15:38:25.194Z,16.85
2022-09-30T15:41:05.647Z,16.67
2022-09-30T15:43:39.763Z,16.53
2022-09-30T15:46:40.586Z,16.42
2022-09-30T15:49:45.982Z,16.35
2022-09-30T15:52:20.725Z,16.24
2022-09-30T15:54:50.442Z,16.10
2022-09-30T15:57:59.039Z,16.00
2022-09-30T16:00:36.198Z,15.87
2022-09-30T16:03:28.144Z,15.73
2022-09-30T16:06:12.293Z,15.58
2022-09-30T16:08:48.368Z,15.43
2022-09-30T16:11:25.429Z,15.27
2022-09-30T16:13:55.564Z,15.17
2022-09-30T16:16:32.519Z,15.08
2022-09-30T16:19:02.836Z,14.97
2022-09-30T16:21:51.413Z,14.85
2022-09-30T16:24:29.462Z,14.76
2022-09-30T16:27:31.612Z,14.66
2022-09-30T16:30:02.279Z,14.54
2022-09-30T16:32:37.483Z,14.42
2022-09-30T16:35:08.598Z,14.31
2022-09-30T16:37:37.255Z,14.20
2022-09-30T16:40:17.895Z,14.09
2022-09-30T16:42:46.766Z,13.96
2022-09-30T16:45:18.625Z,13.85
2022-09-30T16:47:47.314Z,13.76
2022-09-30T16:50:46.079Z,13.67
2022-09-30T16:53:17.460Z,13.57
2022-09-30T16:55:48.655Z,13.49
2022-09-30T16:58:17.529Z,13.42
2022-09-30T17:00:47.061Z,13.35
2022-09-30T17:03:17.777Z,13.28
2022-09-30T17:05:53.456Z,13.20
2022-09-30T17:08:26.273Z,13.11
2022-09-30T17:10:55.314Z,13.02
2022-09-30T17:13:25.936Z,12.93
2022-09-30T17:15:55.179Z,12.83
2022-09-30T17:18:25.575Z,12.74
2022-09-30T17:20:54.366Z,12.65
2022-09-30T17:23:25.651Z,12.57
2022-09-30T17:25:55.092Z,12.49
2022-09-30T17:28:23.815Z,12.41
2022-09-30T17:30:52.526Z,12.32
2022-09-30T17:33:23.558Z,12.24
2022-09-30T17:36:02.700Z,12.15
2022-09-30T17:38:46.228Z,12.07
2022-09-30T17:41:43.781Z,11.97
2022-09-30T17:44:17.039Z,11.89
2022-09-30T17:46:46.391Z,11.82
2022-09-30T17:49:23.339Z,11.76
2022-09-30T17:51:52.449Z,11.69
2022-09-30T17:54:23.013Z,11.63
2022-09-30T17:56:52.551Z,11.56
2022-09-30T17:59:23.724Z,11.50
2022-09-30T18:01:53.846Z,11.44
2022-09-30T18:04:23.607Z,11.36
2022-09-30T18:06:57.240Z,11.30
2022-09-30T18:09:27.766Z,11.24
2022-09-30T18:11:56.761Z,11.18
2022-09-30T18:14:24.668Z,11.13
2022-09-30T18:16:55.538Z,11.07
2022-09-30T18:19:31.124Z,11.02
2022-09-30T18:22:04.061Z,10.97
2022-09-30T18:24:53.597Z,10.94
2022-09-30T18:27:23.579Z,10.89
2022-09-30T18:29:52.165Z,10.84
2022-09-30T18:32:21.119Z,10.80
2022-09-30T18:34:51.889Z,10.78
2022-09-30T18:37:22.998Z,10.74
2022-09-30T18:39:53.076Z,10.71
2022-09-30T18:42:21.302Z,10.68
2022-09-30T18:44:51.807Z,10.65
2022-09-30T18:47:22.568Z,10.63
2022-09-30T18:49:51.325Z,10.62
2022-09-30T18:52:20.116Z,10.61
2022-09-30T18:54:49.932Z,10.60
2022-09-30T18:57:21.662Z,10.59
2022-09-30T18:59:53.441Z,10.58
2022-09-30T19:02:21.868Z,10.57
2022-09-30T19:04:54.128Z,10.56
2022-09-30T19:07:25.287Z,10.55
2022-09-30T19:09:55.249Z,10.56
2022-09-30T19:12:29.562Z,10.56
2022-09-30T19:14:59.925Z,10.57
2022-09-30T19:17:32.492Z,10.57
2022-09-30T19:20:01.373Z,10.58
2022-09-30T19:22:31.057Z,10.58
2022-09-30T19:25:02.407Z,10.57
2022-09-30T19:27:39.183Z,10.57
2022-09-30T19:30:10.584Z,10.57
2022-09-30T19:32:40.194Z,10.58
2022-09-30T19:35:12.641Z,10.58
2022-09-30T19:37:55.320Z,10.58
2022-09-30T19:43:03.353Z,10.56
2022-09-30T19:45:33.330Z,10.55
2022-09-30T19:48:04.501Z,10.54
2022-09-30T19:50:36.554Z,10.54
2022-09-30T19:53:05.665Z,10.54
2022-09-30T19:55:46.867Z,10.56
2022-09-30T19:58:19.298Z,10.56
2022-09-30T20:00:59.296Z,10.55
2022-09-30T20:03:31.327Z,10.56
2022-09-30T20:06:19.926Z,10.56
2022-09-30T20:08:54.405Z,10.58
2022-09-30T20:11:22.343Z,10.58
2022-09-30T20:14:15.217Z,10.58
2022-09-30T20:16:44.630Z,10.58
2022-09-30T20:19:13.536Z,10.56
2022-09-30T20:21:43.278Z,10.52
2022-09-30T20:24:15.144Z,10.50
2022-09-30T20:26:44.881Z,10.51
2022-09-30T20:29:13.383Z,10.51
2022-09-30T20:31:43.341Z,10.51
2022-09-30T20:34:17.256Z,10.51
2022-09-30T20:36:45.332Z,10.54
2022-09-30T20:39:18.227Z,10.55
2022-09-30T20:41:46.146Z,10.57
2022-09-30T20:44:14.669Z,10.57
2022-09-30T20:46:45.075Z,10.56
2022-09-30T20:49:13.345Z,10.57
2022-09-30T20:51:41.288Z,10.58
2022-09-30T20:54:10.292Z,10.59
2022-09-30T20:57:05.421Z,10.59
2022-09-30T20:59:26.476Z,10.60
2022-09-30T21:01:54.587Z,10.60
2022-09-30T21:04:22.887Z,10.62
2022-09-30T21:06:52.704Z,10.63
2022-09-30T21:09:21.675Z,10.65
2022-09-30T21:11:50.160Z,10.68
2022-09-30T21:14:18.582Z,10.70
2022-09-30T21:16:46.864Z,10.68
2022-09-30T21:19:16.095Z,10.68
2022-09-30T21:21:47.214Z,10.67
2022-09-30T21:24:16.820Z,10.67
2022-09-30T21:26:45.313Z,10.67
2022-09-30T21:29:13.166Z,10.66
2022-09-30T21:31:41.069Z,10.66
2022-09-30T21:34:13.938Z,10.66
2022-09-30T21:36:44.657Z,10.66
2022-09-30T21:39:12.838Z,10.66
2022-09-30T21:41:43.416Z,10.66
2022-09-30T21:44:11.223Z,10.65
2022-09-30T21:46:39.107Z,10.64
2022-09-30T21:49:19.068Z,10.64
2022-09-30T21:51:49.047Z,10.65
2022-09-30T21:54:21.922Z,10.66
2022-09-30T21:56:53.639Z,10.66
2022-09-30T21:59:25.122Z,10.62
2022-09-30T22:01:53.303Z,10.60
2022-09-30T22:04:21.320Z,10.58
2022-09-30T22:06:49.536Z,10.56
2022-09-30T22:09:17.501Z,10.53
2022-09-30T22:11:46.096Z,10.52
2022-09-30T22:14:14.116Z,10.48
2022-09-30T22:16:42.090Z,10.42
2022-09-30T22:19:10.084Z,10.36
2022-09-30T22:21:38.651Z,10.32
2022-09-30T22:24:10.494Z,10.27
2022-09-30T22:26:41.610Z,10.23
2022-09-30T22:29:12.068Z,10.20
2022-09-30T22:31:41.841Z,10.15
2022-09-30T22:34:32.656Z,10.10
2022-09-30T22:37:19.362Z,10.05
2022-09-30T22:39:48.398Z,9.99
2022-09-30T22:42:17.458Z,9.92
2022-09-30T22:44:47.624Z,9.87
2022-09-30T22:47:18.023Z,9.83
2022-09-30T22:49:47.112Z,9.75
2022-09-30T22:52:15.024Z,9.71
2022-09-30T22:54:43.141Z,9.69
2022-09-30T22:57:13.088Z,9.67
2022-09-30T22:59:43.104Z,9.65
2022-09-30T23:02:11.113Z,9.63
2022-09-30T23:04:39.219Z,9.61
2022-09-30T23:07:11.319Z,9.59
2022-09-30T23:09:39.456Z,9.56
2022-09-30T23:12:08.406Z,9.51
2022-09-30T23:14:36.349Z,9.46
2022-09-30T23:17:05.328Z,9.39
2022-09-30T23:19:33.124Z,9.35
2022-09-30T23:22:05.800Z,9.32
2022-09-30T23:24:35.579Z,9.30
2022-09-30T23:27:03.777Z,9.27
2022-09-30T23:29:31.620Z,9.24
2022-09-30T23:32:02.727Z,9.20
2022-09-30T23:34:31.648Z,9.15
2022-09-30T23:36:59.759Z,9.08
2022-09-30T23:39:31.017Z,9.02
2022-09-30T23:41:59.063Z,8.99
2022-09-30T23:44:28.579Z,8.98
2022-09-30T23:47:15.407Z,8.97
2022-09-30T23:49:44.070Z,8.92
2022-09-30T23:52:13.508Z,8.88
2022-09-30T23:54:42.512Z,8.86
2022-09-30T23:57:11.477Z,8.84
2022-09-30T23:59:40.276Z,8.83
